KLRF/LRF METAR and TAF weather

Enter ICAO airport designator
Station Type Date Time Source
KLRF METAR 2018/12/19 09:26 UTC NOAA

KLRF 190926Z AUTO 00000KT 8SM OVC007 09/09 A2998 RMK AO2 SLP155 $


Station Type Date Time Source
KLRF Decoded METAR 2018/12/19 09:26 UTC NOAA

Little Rock Air Force Base, AR, United States (KLRF) 34-55N 092-09W
Dec 19, 2018 - 04:26 AM EST / 2018.12.19 0926 UTC
Wind: Calm:0
Visibility: 8 mile(s):0
Sky conditions: overcast
Temperature: 48 F (9 C)
Dew Point: 48 F (9 C)
Relative Humidity: 100%
Pressure (altimeter): 29.98 in. Hg (1015 hPa)
ob: KLRF 190926Z AUTO 00000KT 8SM OVC007 09/09 A2998 RMK AO2 SLP155
cycle: 9

Station Type Date Time Source
KLRF TAF 2018/12/19 07:25 UTC NOAA

TAF KLRF 190700Z 1907/2013 19006KT 8000 BR OVC007 QNH3000INS
TEMPO 1907/1910 1200 BR OVC003
BECMG 1910/1911 19006KT 4800 BR OVC002 QNH2998INS
BECMG 1915/1916 20006KT 9999 NSW OVC005 QNH2992INS
BECMG 2002/2003 19006KT 8000 -SHRA OVC005 QNH2976INS TX10/1921Z TN07/1911Z


Example: see airport list